createdAt,value
2018-09-18T00:00:32.860Z,95531.00
2018-09-18T00:03:04.889Z,95531.00
2018-09-18T00:05:37.495Z,95525.00
2018-09-18T00:08:09.457Z,95528.00
2018-09-18T00:10:41.348Z,95523.00
2018-09-18T00:13:13.326Z,95528.00
2018-09-18T00:15:45.833Z,95526.00
2018-09-18T00:18:17.801Z,95530.00
2018-09-18T00:20:49.886Z,95528.00
2018-09-18T00:23:22.048Z,95525.00
2018-09-18T00:25:53.884Z,95530.00
2018-09-18T00:28:25.937Z,95530.00
2018-09-18T00:30:57.690Z,95528.00
2018-09-18T00:33:29.543Z,95536.00
2018-09-18T00:36:01.319Z,95530.00
2018-09-18T00:38:34.096Z,95530.00
2018-09-18T00:41:06.269Z,95524.00
2018-09-18T00:43:38.498Z,95521.00
2018-09-18T00:46:11.474Z,95519.00
2018-09-18T00:48:43.400Z,95519.00
2018-09-18T00:51:15.514Z,95521.00
2018-09-18T00:53:47.766Z,95515.00
2018-09-18T00:56:19.369Z,95517.00
2018-09-18T00:58:51.491Z,95516.00
2018-09-18T01:01:23.193Z,95515.00
2018-09-18T01:03:55.208Z,95518.00
2018-09-18T01:06:27.203Z,95512.00
2018-09-18T01:08:59.139Z,95515.00
2018-09-18T01:11:30.947Z,95512.00
2018-09-18T01:14:03.648Z,95515.00
2018-09-18T01:16:35.673Z,95521.00
2018-09-18T01:19:07.571Z,95528.00
2018-09-18T01:21:39.598Z,95525.00
2018-09-18T01:24:11.189Z,95529.00
2018-09-18T01:26:43.039Z,95529.00
2018-09-18T01:29:14.796Z,95526.00
2018-09-18T01:31:46.850Z,95526.00
2018-09-18T01:34:18.802Z,95522.00
2018-09-18T01:36:50.929Z,95524.00
2018-09-18T01:39:22.927Z,95515.00
2018-09-18T01:41:55.593Z,95518.00
2018-09-18T01:44:27.378Z,95520.00
2018-09-18T01:46:59.625Z,95517.00
2018-09-18T01:49:31.474Z,95521.00
2018-09-18T01:52:02.979Z,95523.00
2018-09-18T01:54:34.616Z,95523.00
2018-09-18T01:57:08.063Z,95526.00
2018-09-18T01:59:40.661Z,95526.00
2018-09-18T02:02:13.090Z,95527.00
2018-09-18T02:04:44.818Z,95527.00
2018-09-18T02:07:16.592Z,95523.00
2018-09-18T02:09:48.566Z,95525.00
2018-09-18T02:12:20.781Z,95526.00
2018-09-18T02:14:52.915Z,95526.00
2018-09-18T02:17:25.517Z,95522.00
2018-09-18T02:19:57.254Z,95527.00
2018-09-18T02:22:29.053Z,95529.00
2018-09-18T02:25:00.909Z,95528.00
2018-09-18T02:27:32.832Z,95529.00
2018-09-18T02:30:05.263Z,95532.00
2018-09-18T02:32:37.454Z,95534.00
2018-09-18T02:35:09.431Z,95533.00
2018-09-18T02:37:45.420Z,95535.00
2018-09-18T02:40:17.391Z,95541.00
2018-09-18T02:42:49.320Z,95542.00
2018-09-18T02:45:21.636Z,95536.00
2018-09-18T02:47:54.078Z,95542.00
2018-09-18T02:50:26.180Z,95541.00
2018-09-18T02:52:57.853Z,95544.00
2018-09-18T02:55:29.571Z,95542.00
2018-09-18T02:58:02.240Z,95542.00
2018-09-18T03:00:34.569Z,95542.00
2018-09-18T03:03:06.387Z,95542.00
2018-09-18T03:05:38.300Z,95544.00
2018-09-18T03:08:10.191Z,95544.00
2018-09-18T03:10:42.123Z,95545.00
2018-09-18T03:13:14.631Z,95545.00
2018-09-18T03:15:46.410Z,95546.00
2018-09-18T03:18:18.112Z,95547.00
2018-09-18T03:20:50.178Z,95545.00
2018-09-18T03:23:22.185Z,95545.00
2018-09-18T03:25:54.766Z,95553.00
2018-09-18T03:28:27.004Z,95549.00
2018-09-18T03:30:59.662Z,95548.00
2018-09-18T03:33:31.614Z,95553.00
2018-09-18T03:36:03.680Z,95554.00
2018-09-18T03:38:35.944Z,95556.00
2018-09-18T03:41:07.796Z,95555.00
2018-09-18T03:43:40.074Z,95555.00
2018-09-18T03:46:12.228Z,95562.00
2018-09-18T03:48:45.530Z,95558.00
2018-09-18T03:51:17.936Z,95564.00
2018-09-18T03:53:50.284Z,95567.00
2018-09-18T03:56:23.238Z,95566.00
2018-09-18T03:58:55.577Z,95574.00
2018-09-18T04:01:27.962Z,95567.00
2018-09-18T04:03:59.934Z,95572.00
2018-09-18T04:06:32.210Z,95570.00
2018-09-18T04:09:05.184Z,95578.00
2018-09-18T04:11:37.603Z,95574.00
2018-09-18T04:14:09.662Z,95576.00
2018-09-18T04:16:41.850Z,95582.00
2018-09-18T04:19:13.941Z,95578.00
2018-09-18T04:21:46.308Z,95584.00
2018-09-18T04:24:18.450Z,95582.00
2018-09-18T04:26:50.636Z,95583.00
2018-09-18T04:29:22.975Z,95583.00
2018-09-18T04:31:55.791Z,95593.00
2018-09-18T04:34:28.006Z,95589.00
2018-09-18T04:37:00.352Z,95596.00
2018-09-18T04:39:32.696Z,95602.00
2018-09-18T04:42:04.906Z,95609.00
2018-09-18T04:44:37.051Z,95608.00
2018-09-18T04:47:09.144Z,95608.00
2018-09-18T04:49:41.370Z,95608.00
2018-09-18T04:52:13.394Z,95616.00
2018-09-18T04:54:45.113Z,95619.00
2018-09-18T04:57:17.332Z,95620.00
2018-09-18T04:59:49.660Z,95621.00
2018-09-18T05:02:21.525Z,95615.00
2018-09-18T05:04:53.794Z,95623.00
2018-09-18T05:07:25.843Z,95622.00
2018-09-18T05:09:58.669Z,95627.00
2018-09-18T05:12:30.641Z,95626.00
2018-09-18T05:15:08.353Z,95626.00
2018-09-18T05:17:46.628Z,95623.00
2018-09-18T05:20:18.885Z,95622.00
2018-09-18T05:22:51.099Z,95622.00
2018-09-18T05:25:23.547Z,95620.00
2018-09-18T05:27:55.597Z,95626.00
2018-09-18T05:30:27.606Z,95627.00
2018-09-18T05:32:59.570Z,95629.00
2018-09-18T05:35:31.681Z,95636.00
2018-09-18T05:38:03.506Z,95631.00
2018-09-18T05:40:35.369Z,95633.00
2018-09-18T05:43:07.572Z,95631.00
2018-09-18T05:45:39.430Z,95633.00
2018-09-18T05:48:13.995Z,95633.00
2018-09-18T05:50:46.235Z,95639.00
2018-09-18T05:53:18.756Z,95637.00
2018-09-18T05:55:50.838Z,95630.00
2018-09-18T05:58:22.864Z,95636.00
2018-09-18T06:00:54.941Z,95633.00
2018-09-18T06:03:27.245Z,95636.00
2018-09-18T06:05:59.284Z,95634.00
2018-09-18T06:08:31.150Z,95638.00
2018-09-18T06:11:03.515Z,95635.00
2018-09-18T06:13:35.556Z,95639.00
2018-09-18T06:16:07.898Z,95638.00
2018-09-18T06:18:40.051Z,95637.00
2018-09-18T06:21:12.173Z,95640.00
2018-09-18T06:23:44.564Z,95639.00
2018-09-18T06:26:16.815Z,95639.00
2018-09-18T06:28:49.099Z,95641.00
2018-09-18T06:31:21.287Z,95638.00
2018-09-18T06:33:54.037Z,95637.00
2018-09-18T06:36:26.593Z,95636.00
2018-09-18T06:38:58.652Z,95633.00
2018-09-18T06:41:30.523Z,95629.00
2018-09-18T06:44:02.919Z,95629.00
2018-09-18T06:46:36.043Z,95630.00
2018-09-18T06:49:08.178Z,95634.00
2018-09-18T06:51:40.383Z,95628.00
2018-09-18T06:54:12.264Z,95625.00
2018-09-18T06:56:44.029Z,95627.00
2018-09-18T06:59:16.087Z,95621.00
2018-09-18T07:01:49.121Z,95625.00
2018-09-18T07:04:20.893Z,95620.00
2018-09-18T07:06:52.946Z,95623.00
2018-09-18T07:09:25.656Z,95618.00
2018-09-18T07:11:57.835Z,95620.00
2018-09-18T07:14:29.708Z,95619.00
2018-09-18T07:17:03.210Z,95619.00
2018-09-18T07:19:35.459Z,95625.00
2018-09-18T07:22:09.207Z,95619.00
2018-09-18T07:24:41.216Z,95621.00
2018-09-18T07:27:13.849Z,95622.00
2018-09-18T07:29:45.785Z,95622.00
2018-09-18T07:32:17.839Z,95622.00
2018-09-18T07:34:49.808Z,95617.00
2018-09-18T07:37:22.557Z,95617.00
2018-09-18T07:39:55.309Z,95611.00
2018-09-18T07:42:27.378Z,95614.00
2018-09-18T07:44:59.573Z,95614.00
2018-09-18T07:47:31.500Z,95617.00
2018-09-18T07:50:03.752Z,95614.00
2018-09-18T07:52:35.721Z,95614.00
2018-09-18T07:55:07.759Z,95608.00
2018-09-18T07:57:40.157Z,95609.00
2018-09-18T08:00:12.659Z,95606.00
2018-09-18T08:02:44.960Z,95610.00
2018-09-18T08:05:16.958Z,95602.00
2018-09-18T08:07:49.209Z,95596.00
2018-09-18T08:10:21.309Z,95598.00
2018-09-18T08:12:53.466Z,95591.00
2018-09-18T08:15:25.420Z,95590.00
2018-09-18T08:17:57.430Z,95589.00
2018-09-18T08:20:29.524Z,95588.00
2018-09-18T08:23:01.854Z,95583.00
2018-09-18T08:25:34.301Z,95582.00
2018-09-18T08:28:06.783Z,95576.00
2018-09-18T08:30:39.079Z,95580.00
2018-09-18T08:33:11.510Z,95563.00
2018-09-18T08:35:43.719Z,95565.00
2018-09-18T08:38:16.731Z,95567.00
2018-09-18T08:40:48.855Z,95561.00
2018-09-18T08:43:20.938Z,95565.00
2018-09-18T08:45:53.448Z,95556.00
2018-09-18T08:48:32.404Z,95555.00
2018-09-18T08:51:04.929Z,95554.00
2018-09-18T08:53:37.142Z,95555.00
2018-09-18T08:56:10.259Z,95551.00
2018-09-18T08:58:42.475Z,95545.00
2018-09-18T09:01:14.817Z,95549.00
2018-09-18T09:03:46.844Z,95542.00
2018-09-18T09:06:18.976Z,95545.00
2018-09-18T09:08:51.440Z,95542.00
2018-09-18T09:11:23.640Z,95542.00
2018-09-18T09:13:56.050Z,95539.00
2018-09-18T09:16:28.592Z,95538.00
2018-09-18T09:19:00.798Z,95538.00
2018-09-18T09:21:33.286Z,95524.00
2018-09-18T09:24:06.387Z,95526.00
2018-09-18T09:26:38.705Z,95526.00
2018-09-18T09:29:11.217Z,95523.00
2018-09-18T09:31:43.238Z,95524.00
2018-09-18T09:34:15.585Z,95517.00
2018-09-18T09:36:47.731Z,95514.00
2018-09-18T09:39:20.296Z,95513.00
2018-09-18T09:41:52.432Z,95510.00
2018-09-18T09:44:24.995Z,95506.00
2018-09-18T09:46:56.955Z,95506.00
2018-09-18T09:49:29.300Z,95508.00
2018-09-18T09:52:01.584Z,95496.00
2018-09-18T09:54:33.675Z,95496.00
2018-09-18T09:57:06.094Z,95492.00
2018-09-18T09:59:39.043Z,95488.00
2018-09-18T10:02:19.438Z,95486.00
2018-09-18T10:04:51.556Z,95488.00
2018-09-18T10:07:23.942Z,95480.00
2018-09-18T10:09:56.444Z,95472.00
2018-09-18T10:12:28.665Z,95477.00
2018-09-18T10:15:01.960Z,95472.00
2018-09-18T10:17:34.083Z,95477.00
2018-09-18T10:20:06.843Z,95467.00
2018-09-18T10:22:39.479Z,95467.00
2018-09-18T10:25:12.099Z,95459.00
2018-09-18T10:27:44.633Z,95462.00
2018-09-18T10:30:17.255Z,95463.00
2018-09-18T10:32:50.225Z,95462.00
2018-09-18T10:35:22.469Z,95459.00
2018-09-18T10:37:54.572Z,95443.00
2018-09-18T10:40:27.058Z,95443.00
2018-09-18T10:42:59.297Z,95436.00
2018-09-18T10:45:31.643Z,95443.00
2018-09-18T10:48:04.622Z,95438.00
2018-09-18T10:50:36.825Z,95431.00
2018-09-18T10:53:09.812Z,95428.00
2018-09-18T10:55:42.357Z,95429.00
2018-09-18T10:58:15.248Z,95425.00
2018-09-18T11:00:48.560Z,95414.00
2018-09-18T11:03:21.006Z,95416.00
2018-09-18T11:05:53.595Z,95417.00
2018-09-18T11:08:26.216Z,95413.00
2018-09-18T11:10:58.612Z,95406.00
2018-09-18T11:13:31.092Z,95400.00
2018-09-18T11:16:03.366Z,95404.00
2018-09-18T11:18:35.458Z,95389.00
2018-09-18T11:21:07.720Z,95395.00
2018-09-18T11:23:40.604Z,95386.00
2018-09-18T11:26:12.863Z,95379.00
2018-09-18T11:28:45.261Z,95375.00
2018-09-18T11:31:17.784Z,95372.00
2018-09-18T11:33:50.450Z,95375.00
2018-09-18T11:36:22.692Z,95371.00
2018-09-18T11:38:55.327Z,95368.00
2018-09-18T11:41:28.110Z,95359.00
2018-09-18T11:44:00.846Z,95363.00
2018-09-18T11:46:33.566Z,95349.00
2018-09-18T11:49:06.750Z,95354.00
2018-09-18T11:51:39.328Z,95350.00
2018-09-18T11:54:11.949Z,95354.00
2018-09-18T11:56:44.520Z,95348.00
2018-09-18T11:59:17.760Z,95347.00
2018-09-18T12:01:49.906Z,95346.00
2018-09-18T12:04:22.060Z,95341.00
2018-09-18T12:06:54.568Z,95340.00
2018-09-18T12:09:26.848Z,95341.00
2018-09-18T12:11:59.655Z,95336.00
2018-09-18T12:14:32.471Z,95340.00
2018-09-18T12:17:05.150Z,95330.00
2018-09-18T12:19:38.108Z,95326.00
2018-09-18T12:22:10.515Z,95320.00
2018-09-18T12:24:43.200Z,95322.00
2018-09-18T12:27:15.696Z,95316.00
2018-09-18T12:29:48.180Z,95317.00
2018-09-18T12:32:21.105Z,95315.00
2018-09-18T12:34:53.592Z,95314.00
2018-09-18T12:37:26.088Z,95309.00
2018-09-18T12:39:58.636Z,95308.00
2018-09-18T12:42:31.033Z,95312.00
2018-09-18T12:45:03.515Z,95302.00
2018-09-18T12:47:35.740Z,95295.00
2018-09-18T12:50:08.733Z,95295.00
2018-09-18T12:52:41.348Z,95295.00
2018-09-18T12:55:13.949Z,95295.00
2018-09-18T12:57:46.524Z,95291.00
2018-09-18T13:00:19.938Z,95281.00
2018-09-18T13:02:52.282Z,95278.00
2018-09-18T13:05:24.501Z,95274.00
2018-09-18T13:07:58.237Z,95280.00
2018-09-18T13:10:30.442Z,95278.00
2018-09-18T13:13:02.893Z,95277.00
2018-09-18T13:15:35.310Z,95276.00
2018-09-18T13:18:08.081Z,95269.00
2018-09-18T13:20:41.087Z,95265.00
2018-09-18T13:23:13.669Z,95266.00
2018-09-18T13:25:46.026Z,95264.00
2018-09-18T13:28:18.399Z,95260.00
2018-09-18T13:30:50.980Z,95258.00
2018-09-18T13:33:23.627Z,95255.00
2018-09-18T13:35:56.241Z,95251.00
2018-09-18T13:38:29.076Z,95253.00
2018-09-18T13:41:01.575Z,95248.00
2018-09-18T13:43:33.891Z,95250.00
2018-09-18T13:46:06.373Z,95252.00
2018-09-18T13:48:39.885Z,95251.00
2018-09-18T13:51:12.647Z,95250.00
2018-09-18T13:53:45.238Z,95236.00
2018-09-18T13:56:17.506Z,95243.00
2018-09-18T13:58:50.182Z,95241.00
2018-09-18T14:01:22.560Z,95241.00
2018-09-18T14:03:54.872Z,95237.00
2018-09-18T14:06:28.740Z,95237.00
2018-09-18T14:09:01.173Z,95239.00
2018-09-18T14:11:34.338Z,95232.00
2018-09-18T14:14:06.978Z,95239.00
2018-09-18T14:16:39.423Z,95237.00
2018-09-18T14:19:11.956Z,95243.00
2018-09-18T14:21:44.612Z,95236.00
2018-09-18T14:24:16.832Z,95237.00
2018-09-18T14:26:49.472Z,95234.00
2018-09-18T14:29:22.723Z,95234.00
2018-09-18T14:31:54.796Z,95232.00
2018-09-18T14:34:27.163Z,95236.00
2018-09-18T14:36:59.577Z,95237.00
2018-09-18T14:39:32.145Z,95231.00
2018-09-18T14:42:04.492Z,95237.00
2018-09-18T14:44:36.652Z,95235.00
2018-09-18T14:47:09.537Z,95237.00
2018-09-18T14:49:41.789Z,95235.00
2018-09-18T14:52:13.798Z,95242.00
2018-09-18T14:54:46.048Z,95240.00
2018-09-18T14:57:18.503Z,95240.00
2018-09-18T14:59:51.230Z,95240.00
2018-09-18T15:02:23.504Z,95243.00
2018-09-18T15:04:55.734Z,95247.00
2018-09-18T15:07:27.843Z,95247.00
2018-09-18T15:10:00.103Z,95248.00
2018-09-18T15:12:32.134Z,95255.00
2018-09-18T15:15:04.323Z,95256.00
2018-09-18T15:17:37.511Z,95254.00
2018-09-18T15:20:09.905Z,95254.00
2018-09-18T15:22:42.141Z,95252.00
2018-09-18T15:25:15.222Z,95257.00
2018-09-18T15:27:47.874Z,95255.00
2018-09-18T15:30:20.302Z,95258.00
2018-09-18T15:32:52.725Z,95258.00
2018-09-18T15:35:24.996Z,95256.00
2018-09-18T15:37:57.748Z,95256.00
2018-09-18T15:40:30.319Z,95258.00
2018-09-18T15:43:04.060Z,95257.00
2018-09-18T15:45:36.146Z,95259.00
2018-09-18T15:48:09.294Z,95263.00
2018-09-18T15:50:43.794Z,95270.00
2018-09-18T15:53:16.122Z,95273.00
2018-09-18T15:55:48.938Z,95273.00
2018-09-18T15:58:21.302Z,95276.00
2018-09-18T16:00:53.655Z,95276.00
2018-09-18T16:03:25.428Z,95275.00
2018-09-18T16:05:57.865Z,95279.00
2018-09-18T16:08:30.128Z,95285.00
2018-09-18T16:11:03.122Z,95288.00
2018-09-18T16:13:35.920Z,95287.00
2018-09-18T16:16:08.658Z,95286.00
2018-09-18T16:18:41.656Z,95287.00
2018-09-18T16:21:14.021Z,95279.00
2018-09-18T16:23:46.386Z,95288.00
2018-09-18T16:26:19.031Z,95289.00
2018-09-18T16:28:51.815Z,95293.00
2018-09-18T16:31:25.024Z,95295.00
2018-09-18T16:33:57.799Z,95293.00
2018-09-18T16:36:31.201Z,95298.00
2018-09-18T16:39:03.139Z,95297.00
2018-09-18T16:41:36.723Z,95302.00
2018-09-18T16:44:09.577Z,95298.00
2018-09-18T16:46:41.741Z,95299.00
2018-09-18T16:49:13.845Z,95303.00
2018-09-18T16:51:46.745Z,95303.00
2018-09-18T16:54:19.220Z,95300.00
2018-09-18T16:56:51.540Z,95312.00
2018-09-18T16:59:24.127Z,95314.00
2018-09-18T17:01:57.485Z,95319.00
2018-09-18T17:04:29.815Z,95317.00
2018-09-18T17:07:02.263Z,95320.00
2018-09-18T17:09:35.114Z,95322.00
2018-09-18T17:12:07.061Z,95326.00
2018-09-18T17:14:39.597Z,95326.00
2018-09-18T17:17:11.898Z,95327.00
2018-09-18T17:19:44.513Z,95325.00
2018-09-18T17:22:16.878Z,95324.00
2018-09-18T17:24:49.881Z,95329.00
2018-09-18T17:27:22.773Z,95331.00
2018-09-18T17:29:54.656Z,95328.00
2018-09-18T17:32:27.335Z,95337.00
2018-09-18T17:35:00.755Z,95340.00
2018-09-18T17:37:34.360Z,95344.00
2018-09-18T17:40:07.289Z,95343.00
2018-09-18T17:42:40.104Z,95345.00
2018-09-18T17:45:12.945Z,95347.00
2018-09-18T17:47:46.463Z,95356.00
2018-09-18T17:50:19.133Z,95354.00
2018-09-18T17:52:51.688Z,95366.00
2018-09-18T17:55:25.127Z,95367.00
2018-09-18T17:57:58.287Z,95369.00
2018-09-18T18:00:30.666Z,95370.00
2018-09-18T18:03:02.983Z,95369.00
2018-09-18T18:05:36.027Z,95375.00
2018-09-18T18:08:08.613Z,95373.00
2018-09-18T18:10:41.380Z,95375.00
2018-09-18T18:13:13.983Z,95382.00
2018-09-18T18:15:46.872Z,95381.00
2018-09-18T18:18:19.230Z,95386.00
2018-09-18T18:20:52.471Z,95390.00
2018-09-18T18:23:24.979Z,95396.00
2018-09-18T18:25:58.071Z,95402.00
2018-09-18T18:28:32.209Z,95401.00
2018-09-18T18:31:05.901Z,95398.00
2018-09-18T18:33:38.708Z,95392.00
2018-09-18T18:36:11.371Z,95393.00
2018-09-18T18:38:44.724Z,95394.00
2018-09-18T18:41:17.816Z,95400.00
2018-09-18T18:43:50.579Z,95403.00
2018-09-18T18:46:24.158Z,95402.00
2018-09-18T18:48:57.415Z,95404.00
2018-09-18T18:51:30.876Z,95400.00
2018-09-18T18:54:04.445Z,95399.00
2018-09-18T18:56:37.117Z,95402.00
2018-09-18T18:59:09.512Z,95405.00
2018-09-18T19:01:42.477Z,95411.00
2018-09-18T19:04:15.725Z,95411.00
2018-09-18T19:06:49.315Z,95408.00
2018-09-18T19:09:22.479Z,95411.00
2018-09-18T19:11:55.957Z,95411.00
2018-09-18T19:14:28.898Z,95407.00
2018-09-18T19:17:01.456Z,95413.00
2018-09-18T19:19:35.036Z,95411.00
2018-09-18T19:22:07.652Z,95409.00
2018-09-18T19:24:40.161Z,95413.00
2018-09-18T19:27:14.201Z,95415.00
2018-09-18T19:29:47.852Z,95422.00
2018-09-18T19:32:21.489Z,95420.00
2018-09-18T19:34:54.331Z,95422.00
2018-09-18T19:37:26.870Z,95427.00
2018-09-18T19:40:00.141Z,95425.00
2018-09-18T19:42:32.975Z,95417.00
2018-09-18T19:45:06.242Z,95422.00
2018-09-18T19:47:38.557Z,95417.00
2018-09-18T19:50:17.622Z,95431.00
2018-09-18T19:52:50.655Z,95430.00
2018-09-18T19:55:24.698Z,95427.00
2018-09-18T19:57:57.646Z,95431.00
2018-09-18T20:00:31.298Z,95435.00
2018-09-18T20:03:03.746Z,95438.00
2018-09-18T20:05:36.727Z,95442.00
2018-09-18T20:08:10.237Z,95441.00
2018-09-18T20:10:44.663Z,95446.00
2018-09-18T20:13:17.744Z,95447.00
2018-09-18T20:15:50.216Z,95457.00
2018-09-18T20:18:22.614Z,95452.00
2018-09-18T20:20:55.732Z,95454.00
2018-09-18T20:23:28.253Z,95456.00
2018-09-18T20:26:00.913Z,95456.00
2018-09-18T20:28:33.751Z,95459.00
2018-09-18T20:31:06.859Z,95459.00
2018-09-18T20:33:40.869Z,95461.00
2018-09-18T20:36:15.501Z,95464.00
2018-09-18T20:38:48.744Z,95462.00
2018-09-18T20:41:21.621Z,95466.00
2018-09-18T20:43:55.196Z,95468.00
2018-09-18T20:46:28.162Z,95474.00
2018-09-18T20:49:01.223Z,95477.00
2018-09-18T20:51:34.729Z,95484.00
2018-09-18T20:54:07.324Z,95482.00
2018-09-18T20:56:40.263Z,95481.00
2018-09-18T20:59:13.281Z,95483.00
2018-09-18T21:01:46.396Z,95490.00
2018-09-18T21:04:19.120Z,95490.00
2018-09-18T21:06:51.649Z,95491.00
2018-09-18T21:09:23.851Z,95492.00
2018-09-18T21:11:56.118Z,95495.00
2018-09-18T21:14:28.115Z,95496.00
2018-09-18T21:17:00.802Z,95491.00
2018-09-18T21:19:33.348Z,95496.00
2018-09-18T21:22:05.955Z,95491.00
2018-09-18T21:24:38.821Z,95495.00
2018-09-18T21:27:11.094Z,95489.00
2018-09-18T21:29:44.667Z,95487.00
2018-09-18T21:32:17.340Z,95485.00
2018-09-18T21:34:49.663Z,95479.00
2018-09-18T21:37:23.277Z,95482.00
2018-09-18T21:39:55.748Z,95477.00
2018-09-18T21:42:28.358Z,95481.00
2018-09-18T21:45:00.372Z,95484.00
2018-09-18T21:47:32.913Z,95481.00
2018-09-18T21:50:04.973Z,95477.00
2018-09-18T21:52:37.577Z,95483.00
2018-09-18T21:55:11.375Z,95478.00
2018-09-18T21:57:43.656Z,95482.00
2018-09-18T22:00:16.477Z,95488.00
2018-09-18T22:02:48.783Z,95490.00
2018-09-18T22:05:21.105Z,95491.00
2018-09-18T22:07:53.471Z,95492.00
2018-09-18T22:10:26.575Z,95493.00
2018-09-18T22:13:00.731Z,95494.00
2018-09-18T22:15:33.589Z,95493.00
2018-09-18T22:18:05.793Z,95494.00
2018-09-18T22:20:38.270Z,95491.00
2018-09-18T22:23:10.523Z,95492.00
2018-09-18T22:25:42.571Z,95493.00
2018-09-18T22:28:14.923Z,95491.00
2018-09-18T22:30:47.279Z,95491.00
2018-09-18T22:33:19.770Z,95492.00
2018-09-18T22:35:52.202Z,95492.00
2018-09-18T22:38:24.772Z,95496.00
2018-09-18T22:40:57.123Z,95493.00
2018-09-18T22:43:29.207Z,95496.00
2018-09-18T22:46:01.388Z,95495.00
2018-09-18T22:48:33.719Z,95495.00
2018-09-18T22:51:06.101Z,95494.00
2018-09-18T22:53:38.323Z,95503.00
2018-09-18T22:56:10.403Z,95499.00
2018-09-18T22:58:42.602Z,95507.00
2018-09-18T23:01:14.800Z,95507.00
2018-09-18T23:03:47.362Z,95509.00
2018-09-18T23:06:19.770Z,95514.00
2018-09-18T23:08:52.310Z,95512.00
2018-09-18T23:11:24.786Z,95511.00
2018-09-18T23:13:57.675Z,95516.00
2018-09-18T23:16:29.608Z,95513.00
2018-09-18T23:19:02.100Z,95516.00
2018-09-18T23:21:34.527Z,95517.00
2018-09-18T23:24:07.026Z,95518.00
2018-09-18T23:26:39.850Z,95521.00
2018-09-18T23:29:12.118Z,95527.00
2018-09-18T23:31:44.202Z,95520.00
2018-09-18T23:34:16.888Z,95526.00
2018-09-18T23:36:49.011Z,95527.00
2018-09-18T23:39:21.293Z,95533.00
2018-09-18T23:41:53.835Z,95533.00
2018-09-18T23:44:26.199Z,95535.00
2018-09-18T23:46:58.511Z,95535.00
2018-09-18T23:49:31.768Z,95534.00
2018-09-18T23:52:04.210Z,95536.00
2018-09-18T23:54:36.469Z,95533.00
2018-09-18T23:57:08.771Z,95534.00
2018-09-18T23:59:41.659Z,95537.00
